Time;durP1;ratioP1;P1;durP2;ratioP2;P2;SDS_P1;SDS_P2;PMS_P1;PMS_P2;Temp;Humidity;BMP_temperature;BMP_pressure;BME280_temperature;BME280_humidity;BME280_pressure;Samples;Min_cycle;Max_cycle;Signal;HPM_P1;HPM_P2
2021/12/18 05:01:02;;;;;;;20.33;13.17;;;4.50;99.90;;;;;;5717335;23;20507;-75
2021/12/18 05:03:30;;;;;;;22.53;12.40;;;4.50;99.90;;;;;;4974885;28;20460;-75
2021/12/18 05:05:59;;;;;;;25.20;13.77;;;4.50;99.90;;;;;;4974831;28;20459;-75
2021/12/18 05:08:26;;;;;;;23.17;12.57;;;4.50;99.90;;;;;;4974748;28;20787;-75
2021/12/18 05:10:53;;;;;;;26.80;15.20;;;4.60;99.90;;;;;;4968897;28;21051;-75
2021/12/18 05:13:20;;;;;;;24.13;12.80;;;4.60;99.90;;;;;;4956035;28;20656;-75
2021/12/18 05:15:46;;;;;;;26.83;13.87;;;4.60;99.90;;;;;;4954693;29;20489;-76
2021/12/18 05:18:15;;;;;;;25.30;14.17;;;4.50;99.90;;;;;;4955465;29;20531;-76
2021/12/18 05:20:42;;;;;;;27.20;13.90;;;4.60;99.90;;;;;;4954765;28;20572;-75
2021/12/18 05:23:09;;;;;;;26.80;13.40;;;4.50;99.90;;;;;;4955474;29;20484;-76
2021/12/18 05:25:35;;;;;;;24.90;13.77;;;4.50;99.90;;;;;;4955331;29;20456;-76
2021/12/18 05:28:02;;;;;;;23.80;13.40;;;4.50;99.90;;;;;;4955091;29;21072;-76
2021/12/18 05:30:29;;;;;;;27.17;13.57;;;4.50;99.90;;;;;;4954870;28;20548;-76
2021/12/18 05:32:56;;;;;;;25.00;13.10;;;4.50;99.90;;;;;;4955537;29;20452;-76
2021/12/18 05:35:25;;;;;;;29.13;14.53;;;4.50;99.90;;;;;;4954787;29;20552;-75
2021/12/18 05:37:53;;;;;;;26.33;14.03;;;4.50;99.90;;;;;;4955170;29;20535;-76
2021/12/18 05:40:22;;;;;;;29.30;14.00;;;4.50;99.90;;;;;;4954769;28;20477;-76
2021/12/18 05:42:50;;;;;;;24.40;13.53;;;4.50;99.90;;;;;;4955215;29;20548;-75
2021/12/18 05:45:18;;;;;;;24.60;12.50;;;4.50;99.90;;;;;;4954842;29;21019;-75
2021/12/18 05:47:46;;;;;;;24.50;13.27;;;4.50;99.90;;;;;;4954461;29;20492;-76
2021/12/18 05:50:15;;;;;;;26.27;13.30;;;4.40;99.90;;;;;;4954697;28;20888;-75
2021/12/18 05:52:45;;;;;;;27.50;13.87;;;4.40;99.90;;;;;;4954679;28;21016;-76
2021/12/18 05:55:13;;;;;;;26.93;13.80;;;4.40;99.90;;;;;;4954953;29;20493;-76
2021/12/18 05:57:40;;;;;;;23.10;12.87;;;4.40;99.90;;;;;;4954619;29;20456;-76
2021/12/18 06:00:09;;;;;;;23.67;12.43;;;4.40;99.90;;;;;;4954318;28;20532;-75
2021/12/18 06:02:36;;;;;;;20.57;11.90;;;4.40;99.90;;;;;;4954318;29;20551;-76
2021/12/18 06:05:04;;;;;;;24.67;12.20;;;4.40;99.90;;;;;;4954670;29;20533;-76
2021/12/18 06:07:38;;;;;;;24.37;13.57;;;4.40;99.90;;;;;;4954599;28;20465;-76
2021/12/18 06:10:07;;;;;;;27.57;13.70;;;4.30;99.90;;;;;;4954263;28;20524;-76
2021/12/18 06:12:34;;;;;;;27.00;13.47;;;4.30;99.90;;;;;;4954240;28;21064;-75
2021/12/18 06:15:01;;;;;;;31.00;13.70;;;4.30;99.90;;;;;;4954497;28;20539;-75
2021/12/18 06:17:28;;;;;;;25.90;13.67;;;4.30;99.90;;;;;;4954189;29;20463;-75
2021/12/18 06:19:54;;;;;;;24.10;12.97;;;4.30;99.90;;;;;;4954141;29;20541;-76
2021/12/18 06:22:21;;;;;;;22.63;12.50;;;4.20;99.90;;;;;;4954380;28;20479;-76
2021/12/18 06:24:48;;;;;;;21.50;12.67;;;4.20;99.90;;;;;;4954144;29;20547;-75
2021/12/18 06:27:16;;;;;;;20.23;10.83;;;4.20;99.90;;;;;;4953026;28;20449;-76
2021/12/18 06:29:44;;;;;;;15.43;8.77;;;4.20;99.90;;;;;;4954020;29;20503;-76
2021/12/18 06:32:10;;;;;;;16.97;9.70;;;4.10;99.90;;;;;;4950585;28;20512;-76
2021/12/18 06:34:37;;;;;;;16.53;9.30;;;4.10;99.90;;;;;;4935508;28;20460;-76
2021/12/18 06:37:04;;;;;;;21.47;10.23;;;4.10;99.90;;;;;;4934945;29;20544;-76
2021/12/18 06:39:31;;;;;;;16.73;9.13;;;4.00;99.90;;;;;;4934634;29;21005;-69
2021/12/18 06:41:58;;;;;;;13.67;7.90;;;4.00;99.90;;;;;;4934913;29;20470;-69
2021/12/18 06:44:28;;;;;;;15.50;8.40;;;4.00;99.90;;;;;;4935133;29;20893;-73
2021/12/18 06:46:56;;;;;;;15.70;8.07;;;4.00;99.90;;;;;;4935075;29;20485;-73
2021/12/18 06:49:23;;;;;;;16.30;9.33;;;4.00;99.90;;;;;;4934718;29;20493;-73
2021/12/18 06:51:50;;;;;;;15.87;8.57;;;4.00;99.90;;;;;;4934864;29;21112;-73
2021/12/18 06:54:16;;;;;;;18.27;9.20;;;4.00;99.90;;;;;;4934691;29;20536;-73
2021/12/18 06:56:43;;;;;;;20.77;9.47;;;3.90;99.90;;;;;;4934685;29;20540;-73
2021/12/18 06:59:10;;;;;;;17.43;9.40;;;4.00;99.90;;;;;;4934681;29;20544;-73
2021/12/18 07:01:38;;;;;;;15.77;8.70;;;4.00;99.90;;;;;;4934400;29;20576;-72
2021/12/18 07:04:05;;;;;;;18.23;9.23;;;3.90;99.90;;;;;;4934788;29;20454;-73
2021/12/18 07:06:32;;;;;;;16.57;9.13;;;4.00;99.90;;;;;;4934538;29;20501;-73
2021/12/18 07:08:59;;;;;;;19.50;10.53;;;4.00;99.90;;;;;;4934062;29;20588;-73
2021/12/18 07:11:26;;;;;;;17.47;8.57;;;4.00;99.90;;;;;;4934463;29;20474;-73
2021/12/18 07:13:54;;;;;;;17.90;9.80;;;4.00;99.90;;;;;;4934688;29;20462;-72
2021/12/18 07:16:21;;;;;;;19.53;10.77;;;3.90;99.90;;;;;;4934436;29;20486;-73
2021/12/18 07:18:51;;;;;;;17.60;8.97;;;4.00;99.90;;;;;;4934510;29;20548;-72
2021/12/18 07:21:18;;;;;;;19.57;10.23;;;3.90;99.90;;;;;;4934329;29;20490;-72
2021/12/18 07:23:45;;;;;;;22.00;10.23;;;4.00;99.90;;;;;;4934314;29;20544;-72
2021/12/18 07:26:12;;;;;;;17.43;9.83;;;4.00;99.90;;;;;;4934609;29;20545;-72
2021/12/18 07:28:40;;;;;;;21.20;10.10;;;4.00;99.90;;;;;;4934327;29;20493;-73
2021/12/18 07:31:07;;;;;;;17.90;9.97;;;4.00;99.90;;;;;;4934164;29;21057;-72
2021/12/18 07:33:35;;;;;;;18.83;10.47;;;4.00;99.90;;;;;;4934520;29;20546;-73
2021/12/18 07:36:06;;;;;;;17.70;9.30;;;4.00;99.90;;;;;;4934549;29;20453;-73
2021/12/18 07:38:33;;;;;;;19.10;11.00;;;4.10;99.90;;;;;;4937147;29;20512;-72
2021/12/18 07:40:59;;;;;;;21.00;10.30;;;4.10;99.90;;;;;;4938022;29;20561;-72
2021/12/18 07:43:26;;;;;;;16.40;8.97;;;4.10;99.90;;;;;;4938132;29;20542;-72
2021/12/18 07:45:53;;;;;;;17.87;9.50;;;4.00;99.90;;;;;;4937914;29;20537;-72
2021/12/18 07:48:20;;;;;;;17.50;9.83;;;4.00;99.90;;;;;;4937884;29;20489;-72
2021/12/18 07:50:47;;;;;;;18.50;9.57;;;4.10;99.90;;;;;;4937482;29;20549;-72
2021/12/18 07:53:16;;;;;;;15.20;9.13;;;4.10;99.90;;;;;;4937958;29;20460;-72
2021/12/18 07:55:44;;;;;;;15.63;9.17;;;4.20;99.90;;;;;;4937761;29;20457;-73
2021/12/18 07:58:11;;;;;;;16.60;9.20;;;4.20;99.90;;;;;;4937743;29;20453;-73
2021/12/18 08:00:38;;;;;;;16.50;10.27;;;4.20;99.90;;;;;;4937260;29;20564;-73
2021/12/18 08:03:05;;;;;;;18.57;10.30;;;4.20;99.90;;;;;;4937538;29;20458;-74
2021/12/18 08:05:32;;;;;;;17.50;9.80;;;4.20;99.90;;;;;;4948885;29;20491;-74
2021/12/18 08:07:59;;;;;;;17.93;10.50;;;4.20;99.90;;;;;;4948216;28;20532;-76
2021/12/18 08:10:27;;;;;;;17.73;9.23;;;4.20;99.90;;;;;;4953999;29;20603;-74
2021/12/18 08:12:54;;;;;;;19.10;10.77;;;4.30;99.90;;;;;;4945254;29;20481;-74
2021/12/18 08:15:21;;;;;;;18.97;10.50;;;4.30;99.90;;;;;;4937542;29;20496;-73
2021/12/18 08:17:48;;;;;;;20.13;9.37;;;4.30;99.90;;;;;;4937118;29;20973;-73
2021/12/18 08:20:15;;;;;;;17.37;9.50;;;4.30;99.90;;;;;;4937162;29;20529;-73
2021/12/18 08:22:42;;;;;;;16.90;9.80;;;4.30;99.90;;;;;;4937417;29;20516;-73
2021/12/18 08:25:09;;;;;;;15.97;8.10;;;4.30;99.90;;;;;;4937525;29;20541;-72
2021/12/18 08:27:38;;;;;;;16.30;9.37;;;4.40;99.90;;;;;;4937487;29;20453;-72
2021/12/18 08:30:06;;;;;;;13.87;8.83;;;4.40;99.90;;;;;;4937678;29;20591;-72
2021/12/18 08:32:33;;;;;;;17.00;9.23;;;4.40;99.90;;;;;;4936946;29;20577;-74
2021/12/18 08:35:00;;;;;;;14.73;10.15;;;4.30;99.90;;;;;;4936079;29;20449;-74
2021/12/18 08:37:27;;;;;;;17.13;10.13;;;4.70;99.90;;;;;;4937038;29;20670;-73
2021/12/18 08:39:54;;;;;;;18.23;9.33;;;4.70;99.90;;;;;;4936966;29;20549;-73
2021/12/18 08:42:21;;;;;;;17.80;10.20;;;4.60;99.90;;;;;;4942941;29;20479;-73
2021/12/18 08:44:49;;;;;;;17.07;9.73;;;4.60;99.90;;;;;;4955925;29;21016;-72
2021/12/18 08:47:18;;;;;;;19.43;9.90;;;4.50;99.90;;;;;;4956001;28;20960;-71
2021/12/18 08:49:45;;;;;;;18.97;10.57;;;4.40;99.90;;;;;;4954566;28;20905;-73
2021/12/18 08:52:12;;;;;;;21.90;10.00;;;4.40;99.90;;;;;;4955921;29;20555;-72
2021/12/18 08:54:39;;;;;;;22.20;10.10;;;4.40;99.90;;;;;;4955907;29;20544;-72
2021/12/18 08:57:06;;;;;;;18.63;11.47;;;4.40;99.90;;;;;;4955815;29;20967;-74
2021/12/18 08:59:33;;;;;;;15.90;9.23;;;4.40;99.90;;;;;;4955350;28;20907;-73
2021/12/18 09:02:03;;;;;;;17.37;10.20;;;4.50;99.90;;;;;;4955579;29;20485;-71
2021/12/18 09:04:30;;;;;;;18.70;8.90;;;4.50;99.90;;;;;;4955685;28;20453;-71
2021/12/18 09:06:57;;;;;;;16.97;9.27;;;4.50;99.90;;;;;;4955803;28;20467;-74
2021/12/18 09:09:24;;;;;;;16.20;9.50;;;4.50;99.90;;;;;;4955298;28;20579;-74
2021/12/18 09:11:51;;;;;;;18.17;10.60;;;4.50;99.90;;;;;;4955427;28;20555;-73
2021/12/18 09:14:18;;;;;;;18.70;10.53;;;4.40;99.90;;;;;;4955710;29;20633;-72
2021/12/18 09:16:45;;;;;;;17.37;9.93;;;4.40;99.90;;;;;;4955577;29;20556;-71
2021/12/18 09:19:13;;;;;;;19.07;9.60;;;4.50;99.90;;;;;;4955331;28;20536;-71
2021/12/18 09:21:40;;;;;;;16.20;9.00;;;4.50;99.90;;;;;;4955355;28;20472;-71
2021/12/18 09:24:08;;;;;;;15.27;9.13;;;4.40;99.90;;;;;;4955454;28;20508;-74
2021/12/18 09:26:34;;;;;;;19.83;10.03;;;4.40;99.90;;;;;;4955348;28;20540;-74
2021/12/18 09:29:01;;;;;;;16.27;9.27;;;4.40;99.90;;;;;;4954798;29;20540;-70
2021/12/18 09:31:28;;;;;;;19.07;10.40;;;4.40;99.90;;;;;;4955227;28;20568;-72
2021/12/18 09:33:56;;;;;;;20.00;10.07;;;4.40;99.90;;;;;;4955172;29;20891;-71
2021/12/18 09:36:24;;;;;;;18.60;9.67;;;4.40;99.90;;;;;;4955061;29;20578;-71
2021/12/18 09:38:51;;;;;;;18.00;10.20;;;4.40;99.90;;;;;;4954866;28;20978;-72
2021/12/18 09:41:18;;;;;;;17.17;9.57;;;4.50;99.90;;;;;;4954849;29;20520;-71
2021/12/18 09:43:45;;;;;;;17.20;10.33;;;4.50;99.90;;;;;;4955511;28;20539;-71
2021/12/18 09:46:14;;;;;;;15.30;10.03;;;4.50;99.90;;;;;;4955190;29;20541;-71
2021/12/18 09:48:43;;;;;;;15.57;9.50;;;4.40;99.90;;;;;;4954915;29;20529;-71
2021/12/18 09:51:21;;;;;;;16.33;8.80;;;4.50;99.90;;;;;;4954642;28;20556;-71
2021/12/18 09:53:51;;;;;;;15.40;8.57;;;4.40;99.90;;;;;;4954770;28;20949;-71
2021/12/18 09:56:18;;;;;;;16.43;9.73;;;4.40;99.90;;;;;;4954792;29;20953;-72
2021/12/18 09:58:45;;;;;;;14.00;8.50;;;4.40;99.90;;;;;;4954591;28;20496;-71
2021/12/18 10:01:12;;;;;;;15.80;9.27;;;4.30;99.90;;;;;;4954274;28;20535;-72
2021/12/18 10:03:43;;;;;;;16.00;9.20;;;4.30;99.90;;;;;;4954712;28;20888;-71
2021/12/18 10:06:34;;;;;;;16.50;9.60;;;4.40;99.90;;;;;;4954407;28;20536;-71
2021/12/18 10:09:04;;;;;;;14.20;8.53;;;4.40;99.90;;;;;;4954022;29;20484;-68
2021/12/18 10:11:31;;;;;;;15.80;9.50;;;4.40;99.90;;;;;;4953870;28;20576;-72
2021/12/18 10:14:02;;;;;;;12.50;8.35;;;4.40;99.90;;;;;;4952930;28;20494;-73
2021/12/18 10:16:30;;;;;;;15.10;10.37;;;4.40;99.90;;;;;;4953024;28;20221;-72
2021/12/18 10:18:58;;;;;;;16.57;9.73;;;4.40;99.90;;;;;;4953231;29;20539;-72
2021/12/18 10:21:27;;;;;;;16.00;9.23;;;4.50;99.90;;;;;;4953480;28;20497;-73
2021/12/18 10:23:55;;;;;;;17.00;8.83;;;4.50;99.90;;;;;;4953384;28;20830;-72
2021/12/18 10:26:38;;;;;;;16.27;9.97;;;4.50;99.90;;;;;;4953305;28;20548;-71
2021/12/18 10:29:07;;;;;;;16.20;9.30;;;4.50;99.90;;;;;;4952986;28;20484;-72
2021/12/18 10:31:42;;;;;;;17.83;9.03;;;4.50;99.90;;;;;;4952806;28;20595;-71
2021/12/18 10:34:17;;;;;;;14.50;8.90;;;4.50;99.90;;;;;;4953056;28;20500;-71
2021/12/18 10:37:11;;;;;;;15.67;9.77;;;4.50;99.90;;;;;;4953088;28;20479;-72
2021/12/18 10:39:40;;;;;;;16.70;9.93;;;4.50;99.90;;;;;;4953099;29;20544;-71
2021/12/18 10:42:21;;;;;;;17.90;9.83;;;4.50;99.90;;;;;;4953151;28;20508;-71
2021/12/18 10:45:04;;;;;;;21.20;11.67;;;4.50;99.90;;;;;;4953147;29;20476;-72
2021/12/18 10:47:49;;;;;;;16.93;9.40;;;4.50;99.90;;;;;;4953067;29;20645;-72
2021/12/18 10:50:22;;;;;;;20.90;10.63;;;4.50;99.90;;;;;;4953085;28;20575;-71
2021/12/18 10:53:00;;;;;;;17.60;10.17;;;4.50;99.90;;;;;;4952931;29;20544;-72
2021/12/18 10:55:29;;;;;;;17.90;10.30;;;4.50;99.90;;;;;;4952884;29;20536;-72
2021/12/18 10:57:58;;;;;;;15.90;10.17;;;4.60;99.90;;;;;;4952826;29;20553;-72
2021/12/18 11:00:46;;;;;;;16.80;10.30;;;4.60;99.90;;;;;;4952281;29;21336;-71
2021/12/18 11:03:15;;;;;;;18.10;10.13;;;4.60;99.90;;;;;;4952914;29;20539;-71
2021/12/18 11:05:42;;;;;;;18.27;10.90;;;4.70;99.90;;;;;;4952828;29;20539;-71
2021/12/18 11:08:11;;;;;;;19.00;10.50;;;4.70;99.90;;;;;;4952682;29;20452;-72
2021/12/18 11:10:42;;;;;;;20.43;10.40;;;4.70;99.90;;;;;;4952210;29;20588;-72
2021/12/18 11:15:56;;;;;;;19.10;11.17;;;4.70;99.90;;;;;;4956821;29;20948;-71
2021/12/18 11:18:23;;;;;;;18.00;11.13;;;4.70;99.90;;;;;;4956728;29;20546;-72
2021/12/18 11:20:52;;;;;;;22.80;11.37;;;4.70;99.90;;;;;;4956356;29;20559;-72
2021/12/18 11:23:26;;;;;;;19.03;11.40;;;4.80;99.90;;;;;;4956377;29;20453;-72
2021/12/18 11:25:55;;;;;;;23.80;12.00;;;4.80;99.90;;;;;;4956613;29;20487;-72
2021/12/18 11:28:27;;;;;;;20.30;12.43;;;4.80;99.90;;;;;;4956484;29;20543;-72
2021/12/18 11:30:54;;;;;;;23.93;13.67;;;4.80;99.90;;;;;;4956072;29;20583;-72
2021/12/18 11:33:21;;;;;;;23.50;14.63;;;4.90;99.90;;;;;;4956422;29;20449;-71
2021/12/18 11:35:49;;;;;;;23.50;13.87;;;4.90;99.90;;;;;;4956448;29;20543;-72
2021/12/18 11:38:17;;;;;;;23.73;14.37;;;5.00;99.90;;;;;;4956609;29;20456;-73
2021/12/18 11:40:44;;;;;;;25.53;13.97;;;5.00;99.90;;;;;;4956774;29;20560;-72
2021/12/18 11:43:35;;;;;;;25.90;14.40;;;5.00;99.90;;;;;;4957015;29;20467;-72
2021/12/18 11:46:03;;;;;;;25.60;14.57;;;5.00;99.90;;;;;;4956973;28;20857;-72
2021/12/18 11:48:52;;;;;;;24.90;14.77;;;5.10;99.90;;;;;;4957226;29;20555;-72
2021/12/18 11:51:19;;;;;;;21.70;13.17;;;5.00;99.90;;;;;;4957070;28;20582;-71
2021/12/18 11:53:46;;;;;;;23.90;13.77;;;5.10;99.90;;;;;;4956963;28;20492;-72
2021/12/18 11:56:14;;;;;;;27.93;14.50;;;5.10;99.90;;;;;;4957069;28;20555;-71
2021/12/18 11:58:45;;;;;;;28.80;16.63;;;5.10;99.90;;;;;;4956564;29;20472;-72
2021/12/18 12:01:18;;;;;;;26.90;16.43;;;5.20;99.90;;;;;;4956512;29;20571;-71
2021/12/18 12:03:47;;;;;;;25.13;14.10;;;5.20;99.90;;;;;;4956856;29;20491;-72
2021/12/18 12:06:28;;;;;;;26.10;14.87;;;5.20;99.90;;;;;;4956769;29;20540;-71
2021/12/18 12:09:27;;;;;;;26.97;15.23;;;5.20;99.90;;;;;;4956870;28;20568;-72
2021/12/18 12:11:57;;;;;;;29.07;16.87;;;5.20;99.90;;;;;;4956533;29;21013;-72
2021/12/18 12:14:27;;;;;;;26.13;15.10;;;5.20;99.90;;;;;;4956675;28;20543;-70
2021/12/18 12:17:09;;;;;;;24.60;15.10;;;5.20;99.90;;;;;;4956041;29;20485;-71
2021/12/18 12:19:59;;;;;;;23.57;14.40;;;5.30;99.90;;;;;;4955579;29;20580;-71
2021/12/18 12:22:57;;;;;;;25.03;14.27;;;5.30;99.90;;;;;;4950383;28;20484;-72
2021/12/18 12:25:39;;;;;;;21.17;13.10;;;5.30;99.90;;;;;;4955386;29;20600;-72
2021/12/18 12:28:08;;;;;;;23.23;12.20;;;5.30;99.90;;;;;;4955308;29;21007;-72
2021/12/18 12:30:43;;;;;;;21.90;14.03;;;5.20;99.90;;;;;;4955238;29;21077;-72
2021/12/18 12:33:13;;;;;;;23.07;13.40;;;5.20;99.90;;;;;;4955493;29;20492;-72
2021/12/18 12:36:01;;;;;;;21.07;12.97;;;5.30;99.90;;;;;;4955344;29;20535;-71
2021/12/18 12:38:31;;;;;;;22.47;13.90;;;5.30;99.90;;;;;;4955462;29;20492;-71
2021/12/18 12:41:21;;;;;;;21.43;12.87;;;5.40;99.90;;;;;;4955310;29;20613;-71
2021/12/18 12:43:48;;;;;;;19.60;12.50;;;5.40;99.90;;;;;;4955024;28;20888;-71
2021/12/18 12:46:19;;;;;;;21.97;14.20;;;5.40;99.90;;;;;;4955570;29;20471;-71
2021/12/18 12:49:00;;;;;;;23.23;14.23;;;5.40;99.90;;;;;;4955851;29;20498;-70
2021/12/18 12:51:27;;;;;;;22.43;13.43;;;5.40;99.90;;;;;;4955601;29;20584;-72
2021/12/18 12:53:55;;;;;;;22.60;13.27;;;5.40;99.90;;;;;;4955790;29;20992;-71
2021/12/18 12:56:23;;;;;;;21.60;13.83;;;5.40;99.90;;;;;;4955836;29;20456;-70
2021/12/18 12:59:22;;;;;;;27.37;15.30;;;5.40;99.90;;;;;;4955613;29;20837;-71
2021/12/18 13:01:51;;;;;;;25.77;14.30;;;5.40;99.90;;;;;;4955547;28;20504;-71
2021/12/18 13:04:18;;;;;;;25.07;13.07;;;5.40;99.90;;;;;;4955712;29;20512;-71
2021/12/18 13:06:45;;;;;;;23.67;14.03;;;5.40;99.90;;;;;;4955651;29;20552;-71
2021/12/18 13:09:12;;;;;;;27.63;14.80;;;5.40;99.90;;;;;;4955286;28;20516;-71
2021/12/18 13:11:39;;;;;;;26.93;14.20;;;5.40;99.90;;;;;;4955185;28;20528;-71
2021/12/18 13:14:14;;;;;;;30.33;16.10;;;5.40;99.90;;;;;;4955483;28;20956;-71
2021/12/18 13:16:41;;;;;;;27.93;15.40;;;5.50;99.90;;;;;;4955523;29;20941;-71
2021/12/18 13:19:09;;;;;;;24.47;15.20;;;5.50;99.90;;;;;;4955207;29;20453;-72
2021/12/18 13:21:39;;;;;;;23.73;14.77;;;5.40;99.90;;;;;;4955252;29;21073;-71
2021/12/18 13:24:07;;;;;;;25.60;14.87;;;5.40;99.90;;;;;;4955414;29;20457;-72
2021/12/18 13:26:37;;;;;;;24.77;14.70;;;5.40;99.90;;;;;;4955487;29;20544;-71
2021/12/18 13:29:08;;;;;;;28.93;15.43;;;5.50;99.90;;;;;;4955125;29;20457;-72
2021/12/18 13:31:39;;;;;;;26.67;13.73;;;5.50;99.90;;;;;;4955253;28;20585;-72
2021/12/18 13:34:10;;;;;;;24.37;14.10;;;5.50;99.90;;;;;;4955188;29;20497;-72
2021/12/18 13:36:49;;;;;;;23.70;14.60;;;5.60;99.90;;;;;;4954451;28;21313;-72
2021/12/18 13:39:19;;;;;;;21.70;12.53;;;5.50;99.90;;;;;;4955167;29;20547;-72
2021/12/18 13:42:11;;;;;;;26.70;14.13;;;5.50;99.90;;;;;;4955106;29;20500;-72
2021/12/18 13:44:51;;;;;;;22.50;13.60;;;5.50;99.90;;;;;;4954949;29;20957;-72
2021/12/18 13:47:25;;;;;;;22.43;13.20;;;5.40;99.90;;;;;;4955045;28;20480;-71
2021/12/18 13:50:01;;;;;;;27.47;16.03;;;5.50;99.90;;;;;;4954670;28;20882;-72
2021/12/18 13:52:36;;;;;;;27.17;15.20;;;5.40;99.90;;;;;;4954653;29;20535;-72
2021/12/18 13:55:18;;;;;;;26.77;14.67;;;5.50;99.90;;;;;;4954798;28;20878;-73
2021/12/18 13:57:58;;;;;;;22.80;13.63;;;5.50;99.90;;;;;;4954742;29;20548;-70
2021/12/18 14:00:25;;;;;;;25.93;14.67;;;5.40;99.90;;;;;;4954288;29;20827;-71
2021/12/18 14:02:52;;;;;;;23.27;13.27;;;5.50;99.90;;;;;;4954880;29;20453;-72
2021/12/18 14:05:20;;;;;;;28.80;15.30;;;5.50;99.90;;;;;;4954717;29;20544;-73
2021/12/18 14:07:47;;;;;;;24.87;14.37;;;5.40;99.90;;;;;;4954436;29;20455;-71
2021/12/18 14:10:15;;;;;;;28.40;13.83;;;5.50;99.90;;;;;;4954592;28;20492;-71
2021/12/18 14:12:42;;;;;;;25.87;13.00;;;5.50;99.90;;;;;;4954744;28;20867;-72
2021/12/18 14:15:18;;;;;;;22.03;12.80;;;5.50;99.90;;;;;;4954754;29;20540;-72
2021/12/18 14:17:45;;;;;;;21.33;13.30;;;5.50;99.90;;;;;;4954687;28;20456;-71
2021/12/18 14:20:14;;;;;;;19.13;12.77;;;5.50;99.90;;;;;;4954151;29;20523;-71
2021/12/18 14:22:43;;;;;;;20.87;13.60;;;5.50;99.90;;;;;;4951195;29;20533;-71
2021/12/18 14:25:13;;;;;;;23.50;14.17;;;5.60;99.90;;;;;;4934541;29;20537;-74
2021/12/18 14:27:43;;;;;;;26.93;15.73;;;5.60;99.90;;;;;;4934308;29;20556;-71
2021/12/18 14:30:16;;;;;;;24.17;13.27;;;5.60;99.90;;;;;;4935086;29;20457;-71
2021/12/18 14:32:43;;;;;;;25.23;14.37;;;5.60;99.90;;;;;;4934851;29;20577;-71
2021/12/18 14:35:12;;;;;;;22.60;13.80;;;5.70;99.90;;;;;;4935156;29;20541;-72
2021/12/18 14:37:52;;;;;;;26.37;14.80;;;5.70;99.90;;;;;;4935219;29;20453;-72
2021/12/18 14:40:21;;;;;;;25.20;14.63;;;5.70;99.90;;;;;;4934740;29;20552;-72
2021/12/18 14:42:56;;;;;;;28.37;16.77;;;5.70;99.90;;;;;;4935086;29;20517;-72
2021/12/18 14:45:26;;;;;;;25.80;16.27;;;5.70;99.90;;;;;;4934690;29;20882;-72
2021/12/18 14:47:56;;;;;;;25.03;14.27;;;5.60;99.90;;;;;;4932949;29;20544;-72
2021/12/18 14:50:25;;;;;;;22.90;14.17;;;5.60;99.90;;;;;;4934509;29;20460;-72
2021/12/18 14:53:02;;;;;;;24.00;14.27;;;5.50;99.90;;;;;;4934870;29;20589;-72
2021/12/18 14:55:31;;;;;;;22.97;13.73;;;5.50;99.90;;;;;;4934895;29;20548;-72
2021/12/18 14:58:01;;;;;;;23.83;15.27;;;5.50;99.90;;;;;;4934745;29;20541;-72
2021/12/18 15:00:31;;;;;;;23.23;13.70;;;5.50;99.90;;;;;;4934270;29;20545;-72
2021/12/18 15:03:03;;;;;;;29.03;15.23;;;5.50;99.90;;;;;;4934897;29;20452;-72
2021/12/18 15:05:42;;;;;;;24.73;14.80;;;5.40;99.90;;;;;;4934623;29;20509;-72
2021/12/18 15:08:15;;;;;;;24.80;13.63;;;5.40;99.90;;;;;;4934578;29;20454;-73
2021/12/18 15:10:55;;;;;;;24.67;14.00;;;5.40;99.90;;;;;;4934442;29;20536;-72
2021/12/18 15:13:24;;;;;;;27.00;14.37;;;5.30;99.90;;;;;;4934768;29;20449;-72
2021/12/18 15:16:23;;;;;;;26.67;15.17;;;5.30;99.90;;;;;;4934715;29;20497;-72
2021/12/18 15:18:50;;;;;;;23.97;15.10;;;5.20;99.90;;;;;;4934298;28;20591;-72
2021/12/18 15:21:18;;;;;;;24.73;14.33;;;5.20;99.90;;;;;;4934552;29;21016;-72
2021/12/18 15:23:48;;;;;;;22.70;13.70;;;5.20;99.90;;;;;;4934605;29;20939;-72
2021/12/18 15:26:15;;;;;;;22.03;14.20;;;5.20;99.90;;;;;;4934692;29;20997;-73
2021/12/18 15:28:42;;;;;;;26.90;15.67;;;5.20;99.90;;;;;;4934271;29;20460;-73
2021/12/18 15:31:09;;;;;;;27.77;14.90;;;5.20;99.90;;;;;;4934064;29;20489;-72
2021/12/18 15:33:37;;;;;;;22.97;14.03;;;5.10;99.90;;;;;;4934208;29;20458;-72
2021/12/18 15:36:04;;;;;;;23.40;15.13;;;5.10;99.90;;;;;;4934451;29;20497;-72
2021/12/18 15:38:31;;;;;;;29.83;15.87;;;5.10;99.90;;;;;;4936861;29;20529;-73
2021/12/18 15:41:00;;;;;;;22.80;14.97;;;5.10;99.90;;;;;;4934100;29;20899;-72
2021/12/18 15:43:28;;;;;;;23.33;13.40;;;5.10;99.90;;;;;;4934454;29;20485;-72
2021/12/18 15:45:55;;;;;;;29.10;15.63;;;5.10;99.90;;;;;;4934227;29;21270;-72
2021/12/18 15:48:22;;;;;;;25.90;15.90;;;5.10;99.90;;;;;;4934310;29;20525;-74
2021/12/18 15:50:49;;;;;;;27.10;15.73;;;5.10;99.90;;;;;;4934038;29;20474;-72
2021/12/18 15:53:16;;;;;;;32.10;15.30;;;5.10;99.90;;;;;;4933944;29;20529;-72
2021/12/18 15:55:43;;;;;;;26.53;16.53;;;5.10;99.90;;;;;;4934217;29;20481;-72
2021/12/18 15:58:11;;;;;;;30.80;17.00;;;5.10;99.90;;;;;;4934585;29;20540;-72
2021/12/18 16:00:41;;;;;;;27.70;14.97;;;5.10;99.90;;;;;;4937407;29;20557;-72
2021/12/18 16:03:09;;;;;;;31.47;15.83;;;5.10;99.90;;;;;;4938849;29;20958;-74
2021/12/18 16:05:39;;;;;;;25.87;14.77;;;5.20;99.90;;;;;;4939140;29;20496;-73
2021/12/18 16:08:09;;;;;;;25.90;15.63;;;5.20;99.90;;;;;;4939046;29;20454;-73
2021/12/18 16:10:37;;;;;;;32.70;17.57;;;5.20;99.90;;;;;;4938221;29;20481;-73
2021/12/18 16:13:05;;;;;;;27.70;16.00;;;5.10;99.90;;;;;;4938359;29;20922;-73
2021/12/18 16:15:34;;;;;;;30.47;17.27;;;5.10;99.90;;;;;;4938788;29;20500;-72
2021/12/18 16:18:01;;;;;;;32.77;18.80;;;5.10;99.90;;;;;;4938970;29;20458;-73
2021/12/18 16:20:28;;;;;;;38.23;19.40;;;5.10;99.90;;;;;;4938849;29;20496;-73
2021/12/18 16:22:55;;;;;;;33.20;17.10;;;5.10;99.90;;;;;;4938502;29;20497;-73
2021/12/18 16:25:24;;;;;;;27.30;15.90;;;5.20;99.90;;;;;;4938496;29;20490;-73
2021/12/18 16:27:52;;;;;;;32.40;17.47;;;5.20;99.90;;;;;;4938890;29;21008;-73
2021/12/18 16:30:19;;;;;;;36.13;19.10;;;5.20;99.90;;;;;;4938153;29;20485;-73
2021/12/18 16:32:47;;;;;;;31.87;17.90;;;5.20;99.90;;;;;;4938406;29;20604;-71
2021/12/18 16:35:15;;;;;;;34.27;17.77;;;5.20;99.90;;;;;;4939068;29;20536;-72
2021/12/18 16:37:54;;;;;;;35.30;18.60;;;5.10;99.90;;;;;;4938890;29;20530;-72
2021/12/18 16:40:21;;;;;;;35.97;18.10;;;5.10;99.90;;;;;;4936981;29;20462;-73
2021/12/18 16:42:48;;;;;;;34.37;17.63;;;5.20;99.90;;;;;;4936907;29;20485;-73
2021/12/18 16:45:16;;;;;;;37.30;18.60;;;5.10;99.90;;;;;;4936775;29;20490;-72
2021/12/18 16:47:43;;;;;;;33.03;19.47;;;5.10;99.90;;;;;;4935977;29;20545;-73
2021/12/18 16:50:12;;;;;;;33.80;18.17;;;5.00;99.90;;;;;;4936157;29;20508;-72
2021/12/18 16:52:39;;;;;;;37.97;19.73;;;5.00;99.90;;;;;;4936570;29;20576;-72
2021/12/18 16:55:07;;;;;;;40.03;21.23;;;5.00;99.90;;;;;;4936259;29;20532;-72
2021/12/18 16:57:34;;;;;;;33.63;18.67;;;5.00;99.90;;;;;;4936570;29;20501;-72
2021/12/18 17:00:02;;;;;;;37.23;18.80;;;5.00;99.90;;;;;;4936202;29;20460;-72
2021/12/18 17:02:28;;;;;;;35.13;18.70;;;5.00;99.90;;;;;;4936432;29;21074;-73
2021/12/18 17:04:56;;;;;;;37.70;18.80;;;5.00;99.90;;;;;;4936668;29;20489;-73
2021/12/18 17:07:24;;;;;;;38.87;19.77;;;5.00;99.90;;;;;;4935830;29;20462;-71
2021/12/18 17:09:51;;;;;;;31.77;18.27;;;5.10;99.90;;;;;;4934442;29;21231;-73
2021/12/18 17:12:18;;;;;;;37.20;19.33;;;5.10;99.90;;;;;;4935441;29;20601;-72
2021/12/18 17:14:45;;;;;;;37.60;19.37;;;5.10;99.90;;;;;;4935974;29;20545;-71
2021/12/18 17:17:12;;;;;;;34.73;19.13;;;5.10;99.90;;;;;;4935300;29;20541;-72
2021/12/18 17:19:39;;;;;;;40.37;19.60;;;5.10;99.90;;;;;;4935149;29;20974;-72
2021/12/18 17:22:06;;;;;;;39.00;22.10;;;5.00;99.90;;;;;;4935289;29;20512;-70
2021/12/18 17:24:34;;;;;;;40.20;22.90;;;5.00;99.90;;;;;;4935413;29;20524;-71
2021/12/18 17:27:01;;;;;;;48.10;24.57;;;5.00;99.90;;;;;;4935134;29;20965;-71
2021/12/18 17:29:28;;;;;;;41.57;21.70;;;4.90;99.90;;;;;;4935087;29;20485;-69
2021/12/18 17:31:55;;;;;;;39.60;21.17;;;4.90;99.90;;;;;;4934723;29;20533;-71
2021/12/18 17:34:22;;;;;;;45.03;23.90;;;4.90;99.90;;;;;;4935441;29;20572;-70
2021/12/18 17:36:51;;;;;;;39.60;22.03;;;4.90;99.90;;;;;;4935190;29;20536;-71
2021/12/18 17:39:18;;;;;;;45.73;24.07;;;4.90;99.90;;;;;;4934781;29;20521;-71
2021/12/18 17:41:46;;;;;;;45.50;23.83;;;5.00;99.90;;;;;;4935057;29;20565;-71
2021/12/18 17:44:13;;;;;;;41.50;21.80;;;5.00;99.90;;;;;;4934955;29;20450;-71
2021/12/18 17:46:41;;;;;;;46.73;23.07;;;5.00;99.90;;;;;;4934735;29;20561;-73
2021/12/18 17:49:08;;;;;;;39.50;21.23;;;5.00;99.90;;;;;;4934876;29;20457;-71
2021/12/18 17:51:36;;;;;;;44.03;21.83;;;5.00;99.90;;;;;;4934812;29;20567;-72
2021/12/18 17:54:05;;;;;;;39.30;22.57;;;5.00;99.90;;;;;;4934685;29;20454;-72